createdAt,value
2022-12-11T00:01:47.601Z,-7.60
2022-12-11T00:04:36.353Z,-7.70
2022-12-11T00:07:33.892Z,-7.62
2022-12-11T00:10:13.856Z,-7.39
2022-12-11T00:13:16.026Z,-7.23
2022-12-11T00:16:00.666Z,-6.87
2022-12-11T00:18:46.796Z,-6.56
2022-12-11T00:21:29.810Z,-6.34
2022-12-11T00:24:17.253Z,-6.19
2022-12-11T00:27:03.405Z,-6.03
2022-12-11T00:29:52.625Z,-5.91
2022-12-11T00:32:44.783Z,-5.83
2022-12-11T00:35:18.703Z,-5.82
2022-12-11T00:37:58.944Z,-5.81
2022-12-11T00:40:49.175Z,-5.80
2022-12-11T00:43:36.113Z,-5.86
2022-12-11T00:46:21.364Z,-6.08
2022-12-11T00:49:09.688Z,-6.19
2022-12-11T00:51:54.542Z,-6.24
2022-12-11T00:54:42.712Z,-6.15
2022-12-11T00:57:35.184Z,-5.97
2022-12-11T01:00:24.113Z,-5.84
2022-12-11T01:03:13.931Z,-5.71
2022-12-11T01:06:13.300Z,-5.41
2022-12-11T01:09:22.446Z,-5.15
2022-12-11T01:12:08.967Z,-5.23
2022-12-11T01:14:57.515Z,-4.93
2022-12-11T01:17:44.195Z,-4.73
2022-12-11T01:20:29.804Z,-4.68
2022-12-11T01:23:20.116Z,-4.74
2022-12-11T01:26:12.281Z,-4.61
2022-12-11T01:29:04.861Z,-4.61
2022-12-11T01:32:24.654Z,-4.66
2022-12-11T01:35:03.916Z,-4.89
2022-12-11T01:37:51.377Z,-5.21
2022-12-11T01:40:33.380Z,-5.46
2022-12-11T01:43:13.617Z,-5.45
2022-12-11T01:46:09.079Z,-5.34
2022-12-11T01:48:50.743Z,-5.31
2022-12-11T01:51:44.189Z,-5.33
2022-12-11T01:54:46.975Z,-5.28
2022-12-11T01:57:39.285Z,-5.28
2022-12-11T02:03:28.621Z,-6.01
2022-12-11T02:06:26.660Z,-5.15
2022-12-11T02:09:16.195Z,-5.12
2022-12-11T02:12:24.699Z,-5.14
2022-12-11T02:15:20.980Z,-5.20
2022-12-11T02:18:20.585Z,-5.10
2022-12-11T02:21:06.748Z,-5.20
2022-12-11T02:24:31.354Z,-5.26
2022-12-11T02:27:36.712Z,-5.22
2022-12-11T02:30:26.270Z,-5.14
2022-12-11T02:33:18.142Z,-5.17
2022-12-11T02:36:18.983Z,-5.13
2022-12-11T02:38:58.492Z,-5.07
2022-12-11T02:41:47.775Z,-5.03
2022-12-11T02:44:40.900Z,-5.50
2022-12-11T02:47:52.770Z,-4.89
2022-12-11T02:50:31.891Z,-4.91
2022-12-11T02:53:23.208Z,-4.91
2022-12-11T02:56:10.474Z,-4.79
2022-12-11T02:58:58.632Z,-4.73
2022-12-11T03:01:52.818Z,-4.89
2022-12-11T03:04:52.975Z,-4.72
2022-12-11T03:07:49.362Z,-4.87
2022-12-11T03:10:42.844Z,-5.20
2022-12-11T03:13:22.185Z,-5.14
2022-12-11T03:19:30.000Z,-5.02
2022-12-11T03:22:22.922Z,-5.07
2022-12-11T03:25:02.096Z,-5.04
2022-12-11T03:27:56.333Z,-5.16
2022-12-11T03:30:36.713Z,-5.39
2022-12-11T03:33:12.463Z,-5.34
2022-12-11T03:35:50.541Z,-5.93
2022-12-11T03:38:41.781Z,-5.43
2022-12-11T03:41:22.764Z,-5.41
2022-12-11T03:44:16.154Z,-5.37
2022-12-11T03:47:05.732Z,-5.27
2022-12-11T03:49:50.547Z,-5.28
2022-12-11T03:52:28.310Z,-5.53
2022-12-11T03:55:29.963Z,-5.54
2022-12-11T03:58:18.402Z,-5.39
2022-12-11T04:01:06.053Z,-5.47
2022-12-11T04:03:43.601Z,-5.31
2022-12-11T04:06:20.384Z,-5.27
2022-12-11T04:09:03.394Z,-5.34
2022-12-11T04:12:09.018Z,-5.34
2022-12-11T04:15:09.019Z,-5.17
2022-12-11T04:21:08.323Z,-5.41
2022-12-11T04:24:07.163Z,-5.72
2022-12-11T04:27:00.152Z,-5.66
2022-12-11T04:29:42.122Z,-5.79
2022-12-11T04:32:23.826Z,-5.78
2022-12-11T04:35:14.818Z,-5.67
2022-12-11T04:38:05.874Z,-5.66
2022-12-11T04:40:43.790Z,-5.83
2022-12-11T04:43:45.490Z,-6.05
2022-12-11T04:46:42.103Z,-6.10
2022-12-11T04:52:14.381Z,-6.05
2022-12-11T04:55:01.304Z,-6.27
2022-12-11T04:57:47.151Z,-6.42
2022-12-11T05:00:41.156Z,-6.40
2022-12-11T05:03:35.825Z,-6.52
2022-12-11T05:06:15.423Z,-6.72
2022-12-11T05:08:53.336Z,-6.70
2022-12-11T05:11:37.849Z,-6.69
2022-12-11T05:14:24.797Z,-6.80
2022-12-11T05:17:29.123Z,-6.97
2022-12-11T05:26:10.161Z,-7.09
2022-12-11T05:28:44.916Z,-6.95
2022-12-11T05:31:38.885Z,-6.99
2022-12-11T05:34:33.034Z,-6.65
2022-12-11T05:37:18.014Z,-6.67
2022-12-11T05:39:57.189Z,-6.76
2022-12-11T05:42:43.126Z,-6.96
2022-12-11T05:45:29.254Z,-7.15
2022-12-11T05:48:12.569Z,-7.38
2022-12-11T05:51:11.465Z,-7.55
2022-12-11T05:53:55.604Z,-7.85
2022-12-11T05:56:43.722Z,-7.75
2022-12-11T05:59:36.835Z,-7.88
2022-12-11T06:02:33.673Z,-8.09
2022-12-11T06:05:20.812Z,-9.06
2022-12-11T06:08:05.470Z,-8.32
2022-12-11T06:10:48.165Z,-8.61
2022-12-11T06:13:21.116Z,-8.48
2022-12-11T06:16:06.604Z,-8.35
2022-12-11T06:19:10.843Z,-8.25
2022-12-11T06:27:47.167Z,-8.08
2022-12-11T06:33:27.771Z,-7.98
2022-12-11T06:36:25.869Z,-8.02
2022-12-11T06:42:03.612Z,-8.28
2022-12-11T06:44:42.464Z,-8.26
2022-12-11T06:47:36.263Z,-8.30
2022-12-11T06:53:32.955Z,-8.87
2022-12-11T06:56:13.220Z,-8.62
2022-12-11T06:58:50.558Z,-8.70
2022-12-11T07:04:33.491Z,-8.80
2022-12-11T07:07:30.914Z,-8.82
2022-12-11T07:13:17.697Z,-8.96
2022-12-11T07:16:18.969Z,-9.00
2022-12-11T07:19:12.521Z,-8.97
2022-12-11T07:21:59.140Z,-9.16
2022-12-11T07:24:54.000Z,-8.92
2022-12-11T07:31:00.839Z,-9.04
2022-12-11T07:33:59.232Z,-9.20
2022-12-11T07:36:34.895Z,-9.29
2022-12-11T07:39:18.480Z,-9.19
2022-12-11T07:42:06.943Z,-9.23
2022-12-11T07:44:48.378Z,-9.36
2022-12-11T07:47:46.157Z,-9.45
2022-12-11T07:50:40.780Z,-9.42
2022-12-11T07:53:29.191Z,-9.68
2022-12-11T07:56:18.507Z,-9.66
2022-12-11T07:59:10.565Z,-9.64
2022-12-11T08:01:55.263Z,-9.83
2022-12-11T08:04:44.985Z,-9.98
2022-12-11T08:07:56.136Z,-10.18
2022-12-11T08:10:47.159Z,-10.51
2022-12-11T08:13:51.472Z,-10.78
2022-12-11T08:19:41.104Z,-10.95
2022-12-11T08:22:34.384Z,-11.20
2022-12-11T08:25:38.993Z,-11.48
2022-12-11T08:28:24.848Z,-11.93
2022-12-11T08:31:16.168Z,-11.87
2022-12-11T08:36:50.780Z,-11.84
2022-12-11T08:39:29.605Z,-11.87
2022-12-11T08:42:13.999Z,-11.95
2022-12-11T08:45:01.455Z,-11.83
2022-12-11T08:48:05.790Z,-11.79
2022-12-11T08:51:09.643Z,-11.93
2022-12-11T08:53:56.186Z,-12.23
2022-12-11T08:56:57.729Z,-12.36
2022-12-11T09:00:11.481Z,-11.89
2022-12-11T09:02:49.309Z,-11.67
2022-12-11T09:05:39.809Z,-11.65
2022-12-11T09:08:30.473Z,-11.89
2022-12-11T09:11:13.885Z,-11.93
2022-12-11T09:14:07.225Z,-11.80
2022-12-11T09:17:04.926Z,-11.62
2022-12-11T09:26:09.695Z,-11.04
2022-12-11T09:28:52.942Z,-11.04
2022-12-11T09:31:45.327Z,-11.20
2022-12-11T09:34:33.985Z,-11.21
2022-12-11T09:37:12.689Z,-11.17
2022-12-11T09:40:05.709Z,-11.08
2022-12-11T09:43:02.191Z,-11.00
2022-12-11T09:45:47.326Z,-10.95
2022-12-11T09:48:32.846Z,-10.88
2022-12-11T09:58:36.303Z,-11.10
2022-12-11T10:01:36.323Z,-11.16
2022-12-11T10:05:02.988Z,-11.25
2022-12-11T10:08:15.026Z,-11.07
2022-12-11T10:11:22.999Z,-11.06
2022-12-11T10:14:15.903Z,-11.05
2022-12-11T10:16:54.764Z,-11.13
2022-12-11T10:19:53.576Z,-11.17
2022-12-11T10:22:53.049Z,-11.34
2022-12-11T10:26:18.989Z,-11.35
2022-12-11T10:28:57.065Z,-11.41
2022-12-11T10:35:08.685Z,-11.32
2022-12-11T10:38:05.186Z,-11.29
2022-12-11T10:41:05.580Z,-11.16
2022-12-11T10:43:54.873Z,-11.13
2022-12-11T10:47:12.482Z,-11.10
2022-12-11T10:53:18.625Z,-11.19
2022-12-11T10:56:09.126Z,-11.34
2022-12-11T10:58:59.593Z,-11.66
2022-12-11T11:01:39.129Z,-11.95
2022-12-11T11:10:52.049Z,-12.57
2022-12-11T11:16:37.908Z,-12.95
2022-12-11T11:19:53.452Z,-13.04
2022-12-11T11:23:00.111Z,-12.97
2022-12-11T11:26:00.268Z,-13.07
2022-12-11T11:28:41.705Z,-13.25
2022-12-11T11:31:34.247Z,-13.52
2022-12-11T11:34:30.901Z,-13.92
2022-12-11T11:37:20.481Z,-13.63
2022-12-11T11:40:10.518Z,-13.57
2022-12-11T11:42:52.421Z,-13.51
2022-12-11T11:45:41.509Z,-13.45
2022-12-11T11:48:40.650Z,-13.44
2022-12-11T11:51:41.200Z,-13.39
2022-12-11T11:54:44.909Z,-13.39
2022-12-11T12:00:57.227Z,-13.34
2022-12-11T12:03:46.447Z,-13.18
2022-12-11T12:07:05.793Z,-12.94
2022-12-11T12:10:11.814Z,-12.65
2022-12-11T12:13:14.326Z,-12.32
2022-12-11T12:16:50.438Z,-12.75
2022-12-11T12:19:47.193Z,-12.36
2022-12-11T12:22:45.854Z,-12.34
2022-12-11T12:25:32.697Z,-12.46
2022-12-11T12:31:51.645Z,-12.50
2022-12-11T12:34:57.529Z,-12.54
2022-12-11T12:38:03.306Z,-12.47
2022-12-11T12:40:46.914Z,-12.46
2022-12-11T12:49:49.548Z,-12.63
2022-12-11T12:52:37.479Z,-12.60
2022-12-11T12:58:41.974Z,-13.21
2022-12-11T13:01:31.023Z,-13.26
2022-12-11T13:04:47.416Z,-13.50
2022-12-11T13:07:44.449Z,-13.68
2022-12-11T13:10:42.764Z,-13.74
2022-12-11T13:13:41.041Z,-13.81
2022-12-11T13:16:37.352Z,-13.83
2022-12-11T13:19:42.525Z,-13.82
2022-12-11T13:22:41.431Z,-13.71
2022-12-11T13:25:55.613Z,-13.67
2022-12-11T13:29:13.408Z,-13.57
2022-12-11T13:32:11.281Z,-13.55
2022-12-11T13:35:11.203Z,-13.73
2022-12-11T13:38:03.703Z,-14.19
2022-12-11T13:41:14.471Z,-13.94
2022-12-11T13:44:07.395Z,-14.00
2022-12-11T13:49:43.044Z,-13.99
2022-12-11T13:52:37.650Z,-13.99
2022-12-11T13:55:42.032Z,-14.05
2022-12-11T13:58:36.242Z,-13.96
2022-12-11T14:01:30.773Z,-14.00
2022-12-11T14:04:33.708Z,-13.93
2022-12-11T14:10:22.272Z,-14.03
2022-12-11T14:13:11.407Z,-14.13
2022-12-11T14:16:12.155Z,-14.18
2022-12-11T14:18:58.228Z,-14.34
2022-12-11T14:21:39.737Z,-14.44
2022-12-11T14:24:25.917Z,-14.55
2022-12-11T14:27:37.019Z,-14.56
2022-12-11T14:30:29.285Z,-14.65
2022-12-11T14:33:25.939Z,-14.75
2022-12-11T14:36:17.686Z,-14.70
2022-12-11T14:39:07.832Z,-14.76
2022-12-11T14:42:00.752Z,-14.82
2022-12-11T14:44:58.796Z,-15.37
2022-12-11T14:48:01.926Z,-14.99
2022-12-11T14:50:58.125Z,-15.18
2022-12-11T14:53:54.323Z,-15.22
2022-12-11T14:56:35.077Z,-15.38
2022-12-11T14:59:33.213Z,-15.43
2022-12-11T15:02:37.745Z,-15.36
2022-12-11T15:05:40.304Z,-15.57
2022-12-11T15:08:57.428Z,-15.30
2022-12-11T15:11:43.586Z,-15.16
2022-12-11T15:14:27.878Z,-15.35
2022-12-11T15:17:12.938Z,-15.41
2022-12-11T15:23:12.807Z,-15.31
2022-12-11T15:26:17.663Z,-15.03
2022-12-11T15:29:16.743Z,-14.95
2022-12-11T15:32:12.793Z,-15.01
2022-12-11T15:34:58.490Z,-15.07
2022-12-11T15:37:40.215Z,-15.11
2022-12-11T15:40:30.060Z,-15.25
2022-12-11T15:43:47.548Z,-15.36
2022-12-11T15:46:29.054Z,-15.33
2022-12-11T15:49:23.224Z,-15.45
2022-12-11T15:52:03.404Z,-15.33
2022-12-11T15:54:56.351Z,-15.34
2022-12-11T15:57:34.652Z,-15.21
2022-12-11T16:00:29.053Z,-15.02
2022-12-11T16:03:16.047Z,-15.11
2022-12-11T16:06:10.684Z,-15.19
2022-12-11T16:12:08.741Z,-15.55
2022-12-11T16:14:54.686Z,-15.37
2022-12-11T16:17:54.814Z,-15.42
2022-12-11T16:20:44.807Z,-15.36
2022-12-11T16:23:29.325Z,-15.44
2022-12-11T16:26:21.272Z,-15.50
2022-12-11T16:29:16.883Z,-15.44
2022-12-11T16:31:56.278Z,-15.52
2022-12-11T16:35:11.564Z,-15.76
2022-12-11T16:38:20.409Z,-15.83
2022-12-11T16:41:14.735Z,-15.70
2022-12-11T16:44:01.908Z,-15.54
2022-12-11T16:46:56.581Z,-15.53
2022-12-11T16:49:51.018Z,-15.63
2022-12-11T16:53:01.763Z,-15.56
2022-12-11T16:55:40.211Z,-15.62
2022-12-11T16:58:20.913Z,-15.55
2022-12-11T17:04:32.738Z,-16.04
2022-12-11T17:07:17.790Z,-15.91
2022-12-11T17:10:12.809Z,-15.76
2022-12-11T17:13:07.648Z,-15.47
2022-12-11T17:16:01.548Z,-15.68
2022-12-11T17:18:39.939Z,-15.32
2022-12-11T17:21:59.434Z,-15.54
2022-12-11T17:24:53.914Z,-15.66
2022-12-11T17:27:58.122Z,-15.45
2022-12-11T17:30:37.951Z,-15.67
2022-12-11T17:33:26.109Z,-16.04
2022-12-11T17:36:10.205Z,-15.91
2022-12-11T17:38:58.465Z,-16.27
2022-12-11T17:41:47.140Z,-16.60
2022-12-11T17:45:01.186Z,-16.84
2022-12-11T17:47:47.575Z,-16.68
2022-12-11T17:50:33.116Z,-16.69
2022-12-11T17:53:19.882Z,-16.50
2022-12-11T17:56:06.036Z,-16.32
2022-12-11T17:58:56.805Z,-16.08
2022-12-11T18:01:39.262Z,-16.09
2022-12-11T18:04:27.035Z,-16.47
2022-12-11T18:07:26.603Z,-16.24
2022-12-11T18:10:23.686Z,-15.98
2022-12-11T18:13:31.400Z,-15.91
2022-12-11T18:16:46.665Z,-16.03
2022-12-11T18:19:34.889Z,-16.10
2022-12-11T18:22:17.643Z,-16.28
2022-12-11T18:24:58.273Z,-16.41
2022-12-11T18:27:38.746Z,-16.35
2022-12-11T18:30:31.162Z,-16.41
2022-12-11T18:33:25.823Z,-16.23
2022-12-11T18:36:12.191Z,-16.17
2022-12-11T18:39:00.039Z,-16.08
2022-12-11T18:41:36.536Z,-16.08
2022-12-11T18:44:23.204Z,-16.21
2022-12-11T18:47:17.350Z,-16.23
2022-12-11T18:50:11.835Z,-16.22
2022-12-11T18:55:45.119Z,-16.28
2022-12-11T18:58:40.141Z,-16.13
2022-12-11T19:01:34.901Z,-15.97
2022-12-11T19:04:19.187Z,-16.30
2022-12-11T19:07:18.797Z,-16.32
2022-12-11T19:10:17.481Z,-16.70
2022-12-11T19:13:05.225Z,-16.69
2022-12-11T19:15:43.496Z,-16.69
2022-12-11T19:18:38.227Z,-16.66
2022-12-11T19:21:23.488Z,-16.50
2022-12-11T19:24:16.225Z,-16.29
2022-12-11T19:26:53.280Z,-16.20
2022-12-11T19:29:28.278Z,-16.10
2022-12-11T19:32:05.073Z,-16.03
2022-12-11T19:34:43.394Z,-16.03
2022-12-11T19:37:46.189Z,-16.04
2022-12-11T19:40:57.036Z,-16.13
2022-12-11T19:43:37.408Z,-16.14
2022-12-11T19:46:23.067Z,-16.28
2022-12-11T19:49:06.559Z,-16.40
2022-12-11T19:52:22.279Z,-16.52
2022-12-11T19:55:25.319Z,-16.35
2022-12-11T19:58:34.368Z,-16.25
2022-12-11T20:01:38.310Z,-16.38
2022-12-11T20:07:26.097Z,-16.70
2022-12-11T20:10:06.248Z,-16.46
2022-12-11T20:12:43.818Z,-16.50
2022-12-11T20:15:55.105Z,-16.44
2022-12-11T20:18:53.061Z,-16.62
2022-12-11T20:21:52.249Z,-16.56
2022-12-11T20:27:34.023Z,-16.57
2022-12-11T20:30:19.024Z,-16.71
2022-12-11T20:33:31.854Z,-16.69
2022-12-11T20:36:49.295Z,-16.58
2022-12-11T20:39:33.257Z,-16.50
2022-12-11T20:42:28.771Z,-16.82
2022-12-11T20:45:17.581Z,-16.84
2022-12-11T20:47:54.629Z,-16.81
2022-12-11T20:50:43.250Z,-16.82
2022-12-11T20:53:36.019Z,-16.76
2022-12-11T20:56:23.389Z,-16.68
2022-12-11T21:02:52.575Z,-16.82
2022-12-11T21:05:54.091Z,-16.67
2022-12-11T21:08:48.265Z,-16.79
2022-12-11T21:11:30.998Z,-17.09
2022-12-11T21:14:12.268Z,-16.88
2022-12-11T21:16:56.002Z,-16.78
2022-12-11T21:19:58.824Z,-17.53
2022-12-11T21:22:37.100Z,-17.00
2022-12-11T21:25:38.691Z,-17.03
2022-12-11T21:28:30.596Z,-17.03
2022-12-11T21:31:29.952Z,-17.10
2022-12-11T21:34:09.231Z,-17.04
2022-12-11T21:37:03.973Z,-16.85
2022-12-11T21:42:51.126Z,-16.52
2022-12-11T21:46:00.497Z,-16.61
2022-12-11T21:48:46.580Z,-16.83
2022-12-11T21:51:47.240Z,-16.79
2022-12-11T21:54:28.599Z,-16.99
2022-12-11T21:57:43.434Z,-17.04
2022-12-11T22:00:41.335Z,-17.15
2022-12-11T22:06:14.548Z,-16.87
2022-12-11T22:09:01.799Z,-16.97
2022-12-11T22:11:47.394Z,-17.24
2022-12-11T22:17:39.914Z,-17.06
2022-12-11T22:20:26.869Z,-16.94
2022-12-11T22:23:04.979Z,-16.79
2022-12-11T22:29:01.781Z,-16.64
2022-12-11T22:31:47.761Z,-16.56
2022-12-11T22:34:41.737Z,-16.57
2022-12-11T22:37:26.205Z,-16.66
2022-12-11T22:40:07.790Z,-16.64
2022-12-11T22:42:57.885Z,-16.66
2022-12-11T22:45:41.917Z,-16.74
2022-12-11T22:48:18.676Z,-16.85
2022-12-11T22:57:02.035Z,-16.46
2022-12-11T22:59:51.054Z,-16.26
2022-12-11T23:02:53.952Z,-16.00
2022-12-11T23:05:35.029Z,-15.92
2022-12-11T23:08:36.643Z,-15.81
2022-12-11T23:11:29.393Z,-16.12
2022-12-11T23:14:15.351Z,-15.23
2022-12-11T23:17:16.398Z,-14.96
2022-12-11T23:19:55.388Z,-14.93
2022-12-11T23:22:58.719Z,-14.78
2022-12-11T23:25:45.093Z,-14.72
2022-12-11T23:28:39.526Z,-14.66
2022-12-11T23:31:30.477Z,-15.42
2022-12-11T23:34:12.662Z,-14.41
2022-12-11T23:36:53.117Z,-14.09
2022-12-11T23:39:34.210Z,-13.76
2022-12-11T23:42:43.772Z,-13.56
2022-12-11T23:45:23.960Z,-13.50
2022-12-11T23:48:19.351Z,-13.40
2022-12-11T23:51:16.519Z,-13.50
2022-12-11T23:54:11.291Z,-13.23
2022-12-11T23:56:51.966Z,-12.97
2022-12-11T23:59:43.528Z,-12.93
